createdAt,value
2023-02-22T00:00:48.215Z,100391.03
2023-02-22T00:03:16.236Z,100390.84
2023-02-22T00:05:47.234Z,100389.06
2023-02-22T00:08:15.544Z,100397.31
2023-02-22T00:10:42.402Z,100395.44
2023-02-22T00:13:10.512Z,100392.50
2023-02-22T00:15:37.074Z,100400.66
2023-02-22T00:18:04.744Z,100398.97
2023-02-22T00:20:31.147Z,100389.38
2023-02-22T00:22:57.621Z,100389.19
2023-02-22T00:25:25.110Z,100373.22
2023-02-22T00:27:52.904Z,100391.56
2023-02-22T00:30:22.641Z,100390.50
2023-02-22T00:32:50.206Z,100381.56
2023-02-22T00:35:18.946Z,100386.25
2023-02-22T00:37:48.380Z,100377.41
2023-02-22T00:40:17.957Z,100376.25
2023-02-22T00:42:45.749Z,100374.06
2023-02-22T00:45:13.381Z,100375.94
2023-02-22T00:47:39.778Z,100374.66
2023-02-22T00:50:06.225Z,100375.72
2023-02-22T00:52:32.671Z,100367.25
2023-02-22T00:55:00.018Z,100367.34
2023-02-22T00:57:26.465Z,100370.59
2023-02-22T00:59:52.942Z,100365.50
2023-02-22T01:02:19.590Z,100356.91
2023-02-22T01:04:46.664Z,100352.84
2023-02-22T01:07:14.248Z,100349.72
2023-02-22T01:09:41.564Z,100345.34
2023-02-22T01:12:08.709Z,100344.94
2023-02-22T01:14:35.176Z,100342.00
2023-02-22T01:17:01.598Z,100344.28
2023-02-22T01:19:28.006Z,100341.78
2023-02-22T01:21:54.569Z,100348.06
2023-02-22T01:24:20.969Z,100341.59
2023-02-22T01:26:52.024Z,100341.47
2023-02-22T01:29:21.152Z,100339.41
2023-02-22T01:31:54.452Z,100341.09
2023-02-22T01:34:22.549Z,100340.03
2023-02-22T01:36:49.162Z,100342.94
2023-02-22T01:39:17.988Z,100339.31
2023-02-22T01:41:45.780Z,100340.75
2023-02-22T01:44:21.083Z,100321.44
2023-02-22T01:46:47.548Z,100329.34
2023-02-22T01:49:15.163Z,100334.16
2023-02-22T01:51:48.207Z,100321.63
2023-02-22T01:54:28.032Z,100326.13
2023-02-22T01:57:01.199Z,100314.25
2023-02-22T01:59:29.463Z,100305.91
2023-02-22T02:01:55.989Z,100313.72
2023-02-22T02:04:26.002Z,100318.28
2023-02-22T02:07:07.640Z,100311.28
2023-02-22T02:09:42.435Z,100310.84
2023-02-22T02:12:10.337Z,100306.69
2023-02-22T02:14:40.397Z,100304.16
2023-02-22T02:17:09.768Z,100307.63
2023-02-22T02:19:59.202Z,100307.53
2023-02-22T02:22:42.530Z,100301.06
2023-02-22T02:25:19.337Z,100299.69
2023-02-22T02:28:10.707Z,100306.75
2023-02-22T02:31:02.471Z,100298.75
2023-02-22T02:33:43.974Z,100298.19
2023-02-22T02:36:17.700Z,100299.94
2023-02-22T02:38:55.867Z,100296.84
2023-02-22T02:41:48.624Z,100288.09
2023-02-22T02:44:19.824Z,100294.63
2023-02-22T02:47:15.435Z,100287.47
2023-02-22T02:49:59.772Z,100294.75
2023-02-22T02:52:27.375Z,100287.88
2023-02-22T02:54:54.773Z,100282.47
2023-02-22T02:57:21.498Z,100290.69
2023-02-22T02:59:48.123Z,100284.66
2023-02-22T03:02:28.033Z,100274.56
2023-02-22T03:05:09.222Z,100284.66
2023-02-22T03:07:45.703Z,100271.22
2023-02-22T03:10:50.267Z,100276.84
2023-02-22T03:13:23.694Z,100271.97
2023-02-22T03:16:16.627Z,100270.84
2023-02-22T03:18:42.984Z,100266.91
2023-02-22T03:21:33.821Z,100261.44
2023-02-22T03:24:20.005Z,100258.09
2023-02-22T03:27:09.281Z,100260.41
2023-02-22T03:29:39.986Z,100259.56
2023-02-22T03:32:09.764Z,100260.41
2023-02-22T03:34:44.093Z,100252.81
2023-02-22T03:37:22.648Z,100253.53
2023-02-22T03:39:50.879Z,100250.41
2023-02-22T03:42:21.945Z,100242.41
2023-02-22T03:44:49.031Z,100254.69
2023-02-22T03:47:23.242Z,100256.47
2023-02-22T03:49:54.003Z,100247.50
2023-02-22T03:52:23.413Z,100246.94
2023-02-22T03:54:53.747Z,100244.75
2023-02-22T03:57:27.039Z,100248.78
2023-02-22T03:59:53.483Z,100237.06
2023-02-22T04:02:20.490Z,100241.16
2023-02-22T04:04:47.252Z,100244.50
2023-02-22T04:07:13.767Z,100247.53
2023-02-22T04:09:40.203Z,100249.75
2023-02-22T04:12:06.895Z,100242.63
2023-02-22T04:14:33.344Z,100243.38
2023-02-22T04:17:00.012Z,100239.72
2023-02-22T04:19:26.507Z,100234.41
2023-02-22T04:21:52.983Z,100234.31
2023-02-22T04:24:19.387Z,100235.88
2023-02-22T04:26:45.920Z,100233.56
2023-02-22T04:29:12.657Z,100234.41
2023-02-22T04:31:39.174Z,100238.31
2023-02-22T04:34:06.016Z,100232.00
2023-02-22T04:36:32.528Z,100236.59
2023-02-22T04:38:59.494Z,100235.03
2023-02-22T04:41:25.912Z,100236.19
2023-02-22T04:43:52.522Z,100233.97
2023-02-22T04:46:19.838Z,100235.19
2023-02-22T04:48:46.370Z,100225.50
2023-02-22T04:51:13.072Z,100225.19
2023-02-22T04:53:39.486Z,100223.84
2023-02-22T04:56:06.451Z,100229.00
2023-02-22T04:58:32.960Z,100234.84
2023-02-22T05:01:00.599Z,100228.38
2023-02-22T05:03:27.157Z,100208.00
2023-02-22T05:05:53.595Z,100215.09
2023-02-22T05:08:19.956Z,100220.50
2023-02-22T05:10:46.430Z,100221.56
2023-02-22T05:13:12.811Z,100223.78
2023-02-22T05:15:39.154Z,100225.03
2023-02-22T05:18:06.532Z,100224.16
2023-02-22T05:20:34.389Z,100218.47
2023-02-22T05:23:01.852Z,100220.50
2023-02-22T05:25:28.564Z,100223.31
2023-02-22T05:27:57.364Z,100224.09
2023-02-22T05:30:26.847Z,100219.47
2023-02-22T05:32:53.422Z,100218.41
2023-02-22T05:35:38.460Z,100214.53
2023-02-22T05:38:05.821Z,100212.25
2023-02-22T05:40:32.460Z,100207.56
2023-02-22T05:42:59.067Z,100201.44
2023-02-22T05:45:27.362Z,100209.16
2023-02-22T05:47:54.634Z,100207.00
2023-02-22T05:50:21.532Z,100205.44
2023-02-22T05:52:48.632Z,100198.13
2023-02-22T05:55:16.718Z,100206.25
2023-02-22T05:57:43.285Z,100207.16
2023-02-22T06:00:11.358Z,100200.13
2023-02-22T06:02:37.848Z,100207.88
2023-02-22T06:05:04.289Z,100202.16
2023-02-22T06:07:30.645Z,100209.31
2023-02-22T06:09:57.070Z,100211.91
2023-02-22T06:12:23.541Z,100207.19
2023-02-22T06:14:49.988Z,100209.78
2023-02-22T06:17:18.046Z,100205.53
2023-02-22T06:19:45.709Z,100211.59
2023-02-22T06:22:17.944Z,100206.03
2023-02-22T06:24:44.327Z,100214.56
2023-02-22T06:27:10.772Z,100212.59
2023-02-22T06:29:37.512Z,100210.38
2023-02-22T06:32:04.244Z,100206.44
2023-02-22T06:34:30.851Z,100207.41
2023-02-22T06:36:59.676Z,100212.72
2023-02-22T06:39:26.554Z,100215.25
2023-02-22T06:41:55.145Z,100218.88
2023-02-22T06:44:21.663Z,100211.16
2023-02-22T06:46:51.039Z,100223.25
2023-02-22T06:49:18.582Z,100220.16
2023-02-22T06:51:45.565Z,100224.09
2023-02-22T06:54:12.100Z,100228.50
2023-02-22T06:56:38.560Z,100226.00
2023-02-22T06:59:04.967Z,100228.28
2023-02-22T07:01:31.512Z,100230.56
2023-02-22T07:03:57.984Z,100234.66
2023-02-22T07:06:24.493Z,100232.75
2023-02-22T07:08:51.025Z,100244.16
2023-02-22T07:11:18.276Z,100243.53
2023-02-22T07:13:44.963Z,100251.06
2023-02-22T07:16:11.500Z,100249.91
2023-02-22T07:18:38.610Z,100252.53
2023-02-22T07:21:05.505Z,100250.19
2023-02-22T07:23:31.882Z,100252.78
2023-02-22T07:26:01.118Z,100253.72
2023-02-22T07:28:27.557Z,100255.41
2023-02-22T07:30:54.234Z,100260.31
2023-02-22T07:33:20.837Z,100258.97
2023-02-22T07:35:49.046Z,100258.72
2023-02-22T07:38:27.927Z,100262.09
2023-02-22T07:40:55.863Z,100258.22
2023-02-22T07:43:30.614Z,100267.94
2023-02-22T07:46:01.470Z,100265.75
2023-02-22T07:48:33.936Z,100268.56
2023-02-22T07:51:01.317Z,100262.75
2023-02-22T07:53:31.589Z,100266.56
2023-02-22T07:56:01.440Z,100266.69
2023-02-22T07:58:29.433Z,100278.59
2023-02-22T08:00:57.055Z,100271.72
2023-02-22T08:03:27.464Z,100271.06
2023-02-22T08:05:56.269Z,100269.41
2023-02-22T08:08:23.654Z,100278.06
2023-02-22T08:10:52.298Z,100268.91
2023-02-22T08:13:23.117Z,100260.72
2023-02-22T08:15:53.347Z,100265.63
2023-02-22T08:18:27.912Z,100266.69
2023-02-22T08:20:56.860Z,100263.66
2023-02-22T08:23:28.037Z,100255.94
2023-02-22T08:25:56.847Z,100263.66
2023-02-22T08:28:25.745Z,100251.84
2023-02-22T08:31:02.658Z,100261.09
2023-02-22T08:33:32.689Z,100257.75
2023-02-22T08:36:03.003Z,100255.06
2023-02-22T08:38:38.967Z,100259.06
2023-02-22T08:41:08.258Z,100258.97
2023-02-22T08:43:38.368Z,100257.97
2023-02-22T08:46:12.352Z,100262.34
2023-02-22T08:48:49.731Z,100255.56
2023-02-22T08:51:19.543Z,100248.19
2023-02-22T08:53:49.851Z,100261.03
2023-02-22T08:56:18.790Z,100260.16
2023-02-22T08:58:46.504Z,100266.44
2023-02-22T09:01:19.315Z,100259.44
2023-02-22T09:03:53.228Z,100263.56
2023-02-22T09:06:21.738Z,100252.91
2023-02-22T09:08:52.570Z,100254.63
2023-02-22T09:11:21.172Z,100252.06
2023-02-22T09:13:51.304Z,100248.25
2023-02-22T09:16:22.902Z,100250.03
2023-02-22T09:18:52.656Z,100247.41
2023-02-22T09:21:31.620Z,100241.34
2023-02-22T09:24:01.675Z,100242.69
2023-02-22T09:26:29.968Z,100243.41
2023-02-22T09:28:59.003Z,100233.56
2023-02-22T09:31:32.681Z,100241.53
2023-02-22T09:33:59.377Z,100235.13
2023-02-22T09:36:27.240Z,100233.06
2023-02-22T09:38:56.800Z,100228.81
2023-02-22T09:41:37.901Z,100228.91
2023-02-22T09:44:32.706Z,100229.25
2023-02-22T09:46:59.173Z,100227.66
2023-02-22T09:49:47.331Z,100224.91
2023-02-22T09:52:32.391Z,100234.13
2023-02-22T09:55:16.318Z,100225.22
2023-02-22T09:57:46.152Z,100231.38
2023-02-22T10:00:20.912Z,100225.47
2023-02-22T10:03:17.149Z,100227.19
2023-02-22T10:06:00.321Z,100220.59
2023-02-22T10:08:35.511Z,100223.09
2023-02-22T10:11:33.005Z,100224.94
2023-02-22T10:14:30.572Z,100226.56
2023-02-22T10:17:11.577Z,100231.66
2023-02-22T10:19:54.835Z,100232.91
2023-02-22T10:22:37.640Z,100224.72
2023-02-22T10:25:13.659Z,100227.16
2023-02-22T10:27:51.031Z,100216.91
2023-02-22T10:30:28.316Z,100223.03
2023-02-22T10:33:15.709Z,100225.84
2023-02-22T10:35:47.199Z,100214.09
2023-02-22T10:38:23.916Z,100219.38
2023-02-22T10:41:26.703Z,100225.63
2023-02-22T10:44:03.797Z,100226.81
2023-02-22T10:46:34.883Z,100219.16
2023-02-22T10:49:09.227Z,100213.31
2023-02-22T10:51:39.592Z,100218.69
2023-02-22T10:54:39.484Z,100208.91
2023-02-22T10:57:09.612Z,100203.63
2023-02-22T10:59:42.309Z,100204.81
2023-02-22T11:02:54.385Z,100205.78
2023-02-22T11:05:42.684Z,100195.16
2023-02-22T11:08:38.809Z,100194.66
2023-02-22T11:11:28.540Z,100193.31
2023-02-22T11:14:00.177Z,100193.38
2023-02-22T11:16:41.708Z,100192.53
2023-02-22T11:19:31.149Z,100182.56
2023-02-22T11:22:21.046Z,100172.19
2023-02-22T11:27:32.535Z,100160.53
2023-02-22T11:30:25.355Z,100153.22
2023-02-22T11:32:59.285Z,100156.38
2023-02-22T11:35:30.414Z,100154.94
2023-02-22T11:38:19.625Z,100147.72
2023-02-22T11:40:50.147Z,100144.31
2023-02-22T11:43:20.172Z,100139.41
2023-02-22T11:46:11.555Z,100139.59
2023-02-22T11:48:44.681Z,100141.81
2023-02-22T11:51:37.353Z,100143.25
2023-02-22T11:54:30.289Z,100143.06
2023-02-22T11:57:24.553Z,100143.16
2023-02-22T12:00:25.502Z,100130.50
2023-02-22T12:03:06.486Z,100131.31
2023-02-22T12:06:11.608Z,100125.13
2023-02-22T12:09:03.022Z,100126.56
2023-02-22T12:12:26.584Z,100123.97
2023-02-22T12:15:03.964Z,100123.94
2023-02-22T12:17:54.333Z,100126.94
2023-02-22T12:20:33.240Z,100114.38
2023-02-22T12:23:15.802Z,100108.94
2023-02-22T12:26:03.682Z,100108.69
2023-02-22T12:28:47.770Z,100111.06
2023-02-22T12:31:23.710Z,100112.47
2023-02-22T12:34:36.137Z,100110.09
2023-02-22T12:37:38.737Z,100102.63
2023-02-22T12:40:36.777Z,100100.81
2023-02-22T12:43:24.643Z,100104.22
2023-02-22T12:46:39.337Z,100107.88
2023-02-22T12:49:54.313Z,100101.25
2023-02-22T12:53:15.454Z,100090.44
2023-02-22T12:55:55.642Z,100094.09
2023-02-22T12:58:43.432Z,100094.28
2023-02-22T13:01:24.848Z,100098.66
2023-02-22T13:03:55.327Z,100088.84
2023-02-22T13:06:36.053Z,100096.00
2023-02-22T13:09:11.805Z,100090.69
2023-02-22T13:11:58.270Z,100089.06
2023-02-22T13:14:42.009Z,100088.34
2023-02-22T13:17:36.665Z,100084.44
2023-02-22T13:20:23.023Z,100076.50
2023-02-22T13:23:20.978Z,100076.78
2023-02-22T13:26:16.346Z,100069.09
2023-02-22T13:28:51.511Z,100066.28
2023-02-22T13:31:54.522Z,100055.66
2023-02-22T13:34:46.572Z,100061.41
2023-02-22T13:37:41.235Z,100051.53
2023-02-22T13:40:28.200Z,100053.88
2023-02-22T13:43:09.436Z,100055.97
2023-02-22T13:45:53.037Z,100050.63
2023-02-22T13:48:28.701Z,100053.00
2023-02-22T13:51:34.140Z,100048.59
2023-02-22T13:54:10.482Z,100049.50
2023-02-22T13:56:43.601Z,100047.06
2023-02-22T13:59:32.437Z,100045.66
2023-02-22T14:02:06.165Z,100039.25
2023-02-22T14:04:41.550Z,100042.56
2023-02-22T14:07:26.473Z,100032.25
2023-02-22T14:09:56.559Z,100026.09
2023-02-22T14:12:54.102Z,100033.06
2023-02-22T14:15:31.262Z,100033.53
2023-02-22T14:18:10.830Z,100032.63
2023-02-22T14:20:40.394Z,100033.91
2023-02-22T14:23:25.574Z,100034.91
2023-02-22T14:25:51.998Z,100032.34
2023-02-22T14:28:54.630Z,100031.41
2023-02-22T14:31:35.604Z,100032.97
2023-02-22T14:34:17.658Z,100034.06
2023-02-22T14:37:15.411Z,100026.44
2023-02-22T14:40:15.000Z,100029.84
2023-02-22T14:42:51.989Z,100023.34
2023-02-22T14:45:29.231Z,100030.13
2023-02-22T14:48:14.436Z,100024.06
2023-02-22T14:50:50.645Z,100028.22
2023-02-22T14:53:40.568Z,100022.41
2023-02-22T14:56:20.614Z,100026.09
2023-02-22T14:59:08.320Z,100016.78
2023-02-22T15:02:05.925Z,100025.81
2023-02-22T15:04:30.843Z,100016.69
2023-02-22T15:06:59.869Z,100029.28
2023-02-22T15:09:36.601Z,100016.25
2023-02-22T15:12:02.902Z,100010.19
2023-02-22T15:14:33.434Z,100011.22
2023-02-22T15:17:09.281Z,100012.03
2023-02-22T15:19:40.307Z,100010.91
2023-02-22T15:22:26.852Z,100018.34
2023-02-22T15:25:02.263Z,100005.16
2023-02-22T15:27:29.438Z,100013.50
2023-02-22T15:30:04.295Z,100011.94
2023-02-22T15:32:50.011Z,100015.69
2023-02-22T15:35:24.069Z,100015.34
2023-02-22T15:38:22.512Z,100014.44
2023-02-22T15:41:00.570Z,100017.06
2023-02-22T15:43:34.862Z,100017.38
2023-02-22T15:46:10.919Z,100017.81
2023-02-22T15:48:48.032Z,100016.25
2023-02-22T15:51:17.383Z,100011.00
2023-02-22T15:53:46.637Z,100014.03
2023-02-22T15:56:19.244Z,100012.56
2023-02-22T15:58:48.128Z,100014.03
2023-02-22T16:01:19.252Z,100014.41
2023-02-22T16:03:51.685Z,100016.31
2023-02-22T16:06:35.109Z,100023.69
2023-02-22T16:09:17.037Z,100007.41
2023-02-22T16:11:53.059Z,100017.16
2023-02-22T16:14:32.203Z,100017.59
2023-02-22T16:17:24.741Z,100018.72
2023-02-22T16:19:56.346Z,100014.19
2023-02-22T16:22:49.842Z,100018.06
2023-02-22T16:25:24.896Z,100013.38
2023-02-22T16:28:01.652Z,100020.91
2023-02-22T16:30:31.860Z,100013.75
2023-02-22T16:32:59.682Z,100016.91
2023-02-22T16:35:28.873Z,100028.00
2023-02-22T16:38:08.128Z,100019.69
2023-02-22T16:40:40.724Z,100019.22
2023-02-22T16:43:17.999Z,100018.09
2023-02-22T16:45:48.769Z,100014.06
2023-02-22T16:48:25.230Z,100015.41
2023-02-22T16:50:57.143Z,100015.41
2023-02-22T16:53:28.212Z,100014.94
2023-02-22T16:56:03.095Z,100019.59
2023-02-22T16:58:34.312Z,100014.75
2023-02-22T17:01:03.185Z,100024.84
2023-02-22T17:03:34.600Z,100015.09
2023-02-22T17:06:02.315Z,100023.75
2023-02-22T17:08:37.888Z,100022.78
2023-02-22T17:11:05.171Z,100023.78
2023-02-22T17:13:32.309Z,100021.44
2023-02-22T17:15:58.764Z,100027.56
2023-02-22T17:18:28.445Z,100028.06
2023-02-22T17:20:58.595Z,100025.34
2023-02-22T17:23:32.169Z,100031.13
2023-02-22T17:26:02.510Z,100031.13
2023-02-22T17:28:31.223Z,100034.56
2023-02-22T17:31:06.078Z,100031.13
2023-02-22T17:33:37.157Z,100031.22
2023-02-22T17:36:05.171Z,100029.34
2023-02-22T17:38:41.909Z,100036.06
2023-02-22T17:41:08.773Z,100030.53
2023-02-22T17:43:35.554Z,100037.59
2023-02-22T17:46:08.978Z,100030.41
2023-02-22T17:48:39.663Z,100034.16
2023-02-22T17:51:09.467Z,100035.91
2023-02-22T17:53:38.893Z,100040.88
2023-02-22T17:56:13.514Z,100039.78
2023-02-22T17:58:41.928Z,100045.34
2023-02-22T18:01:26.446Z,100043.34
2023-02-22T18:03:56.861Z,100041.41
2023-02-22T18:06:27.075Z,100046.59
2023-02-22T18:09:02.100Z,100034.91
2023-02-22T18:11:32.700Z,100032.03
2023-02-22T18:14:05.069Z,100031.91
2023-02-22T18:16:33.944Z,100040.88
2023-02-22T18:19:06.680Z,100048.09
2023-02-22T18:21:38.749Z,100043.00
2023-02-22T18:24:10.010Z,100042.84
2023-02-22T18:26:40.328Z,100041.81
2023-02-22T18:29:12.426Z,100036.34
2023-02-22T18:31:43.583Z,100041.13
2023-02-22T18:34:15.200Z,100040.50
2023-02-22T18:36:43.410Z,100045.34
2023-02-22T18:39:14.336Z,100042.72
2023-02-22T18:41:41.333Z,100038.59
2023-02-22T18:44:10.347Z,100041.28
2023-02-22T18:46:39.509Z,100041.28
2023-02-22T18:49:06.274Z,100044.94
2023-02-22T18:51:33.929Z,100049.31
2023-02-22T18:54:01.764Z,100043.72
2023-02-22T18:56:30.153Z,100036.38
2023-02-22T18:58:59.541Z,100035.41
2023-02-22T19:01:27.547Z,100044.53
2023-02-22T19:03:57.920Z,100038.88
2023-02-22T19:06:24.756Z,100036.72
2023-02-22T19:08:51.510Z,100033.56
2023-02-22T19:11:24.817Z,100035.25
2023-02-22T19:14:00.774Z,100031.47
2023-02-22T19:16:31.074Z,100026.28
2023-02-22T19:18:59.105Z,100033.03
2023-02-22T19:21:29.882Z,100036.91
2023-02-22T19:23:56.346Z,100029.34
2023-02-22T19:26:25.168Z,100031.09
2023-02-22T19:28:54.894Z,100032.06
2023-02-22T19:31:29.691Z,100039.84
2023-02-22T19:34:09.534Z,100042.28
2023-02-22T19:36:46.300Z,100037.28
2023-02-22T19:39:17.160Z,100034.03
2023-02-22T19:41:51.674Z,100039.03
2023-02-22T19:44:19.846Z,100026.88
2023-02-22T19:46:51.326Z,100033.03
2023-02-22T19:49:22.137Z,100032.38
2023-02-22T19:51:50.107Z,100040.75
2023-02-22T19:54:25.055Z,100039.03
2023-02-22T19:56:51.915Z,100039.03
2023-02-22T19:59:24.939Z,100040.69
2023-02-22T20:01:56.802Z,100041.38
2023-02-22T20:04:30.854Z,100045.03
2023-02-22T20:07:07.296Z,100042.69
2023-02-22T20:09:40.228Z,100041.84
2023-02-22T20:12:11.233Z,100038.94
2023-02-22T20:14:44.174Z,100033.47
2023-02-22T20:17:13.084Z,100038.19
2023-02-22T20:19:45.716Z,100041.84
2023-02-22T20:22:18.624Z,100047.03
2023-02-22T20:24:52.262Z,100045.13
2023-02-22T20:27:29.868Z,100055.63
2023-02-22T20:29:58.215Z,100065.31
2023-02-22T20:32:28.465Z,100061.78
2023-02-22T20:35:00.284Z,100057.78
2023-02-22T20:37:30.638Z,100062.19
2023-02-22T20:40:05.621Z,100059.66
2023-02-22T20:42:35.156Z,100066.81
2023-02-22T20:45:17.265Z,100063.34
2023-02-22T20:47:45.920Z,100066.00
2023-02-22T20:50:17.386Z,100060.50
2023-02-22T20:52:48.243Z,100067.00
2023-02-22T20:55:17.617Z,100051.34
2023-02-22T20:57:47.184Z,100072.34
2023-02-22T21:00:19.169Z,100070.19
2023-02-22T21:02:49.112Z,100069.00
2023-02-22T21:05:16.414Z,100068.19
2023-02-22T21:07:47.634Z,100073.22
2023-02-22T21:10:16.578Z,100069.22
2023-02-22T21:12:52.335Z,100068.50
2023-02-22T21:15:21.439Z,100070.91
2023-02-22T21:17:51.184Z,100071.56
2023-02-22T21:20:21.798Z,100070.22
2023-02-22T21:22:51.940Z,100075.41
2023-02-22T21:25:20.831Z,100082.06
2023-02-22T21:27:47.810Z,100078.06
2023-02-22T21:30:15.071Z,100080.06
2023-02-22T21:32:41.978Z,100078.91
2023-02-22T21:35:08.976Z,100085.88
2023-02-22T21:37:35.423Z,100076.88
2023-02-22T21:40:01.861Z,100075.84
2023-02-22T21:42:28.457Z,100081.00
2023-02-22T21:44:57.895Z,100081.34
2023-02-22T21:47:24.541Z,100079.00
2023-02-22T21:49:50.951Z,100075.22
2023-02-22T21:52:18.449Z,100079.22
2023-02-22T21:54:44.935Z,100070.75
2023-02-22T21:57:11.426Z,100064.41
2023-02-22T21:59:39.398Z,100071.06
2023-02-22T22:02:06.125Z,100062.41
2023-02-22T22:04:34.896Z,100064.06
2023-02-22T22:07:03.798Z,100063.59
2023-02-22T22:09:37.732Z,100058.13
2023-02-22T22:12:10.774Z,100059.91
2023-02-22T22:14:37.812Z,100059.44
2023-02-22T22:17:07.927Z,100057.91
2023-02-22T22:19:39.076Z,100061.41
2023-02-22T22:22:05.577Z,100057.41
2023-02-22T22:24:34.067Z,100055.75
2023-02-22T22:27:03.761Z,100054.41
2023-02-22T22:29:31.146Z,100060.72
2023-02-22T22:31:57.709Z,100064.81
2023-02-22T22:34:24.416Z,100054.81
2023-02-22T22:36:51.107Z,100053.84
2023-02-22T22:39:20.890Z,100052.34
2023-02-22T22:41:47.821Z,100054.13
2023-02-22T22:44:16.056Z,100054.13
2023-02-22T22:46:43.660Z,100061.59
2023-02-22T22:49:12.793Z,100050.53
2023-02-22T22:51:43.227Z,100066.44
2023-02-22T22:54:10.385Z,100055.59
2023-02-22T22:56:37.855Z,100058.28
2023-02-22T22:59:07.756Z,100049.78
2023-02-22T23:01:40.480Z,100051.09
2023-02-22T23:04:11.788Z,100062.91
2023-02-22T23:06:41.097Z,100053.59
2023-02-22T23:09:21.636Z,100052.78
2023-02-22T23:11:50.618Z,100058.91
2023-02-22T23:14:19.890Z,100062.38
2023-02-22T23:16:50.830Z,100058.34
2023-02-22T23:19:19.292Z,100053.34
2023-02-22T23:21:47.702Z,100057.53
2023-02-22T23:24:15.360Z,100055.25
2023-02-22T23:26:42.379Z,100059.59
2023-02-22T23:29:11.465Z,100057.94
2023-02-22T23:31:39.592Z,100060.13
2023-02-22T23:34:11.001Z,100057.44
2023-02-22T23:36:39.127Z,100057.09
2023-02-22T23:39:06.694Z,100049.97
2023-02-22T23:41:36.313Z,100059.66
2023-02-22T23:44:10.778Z,100062.28
2023-02-22T23:46:43.361Z,100057.75
2023-02-22T23:49:14.719Z,100058.44
2023-02-22T23:51:44.476Z,100053.88
2023-02-22T23:54:21.624Z,100054.44
2023-02-22T23:56:57.069Z,100054.44
2023-02-22T23:59:27.303Z,100053.94
